EDT,Max TemperatureF,Mean TemperatureF,Min TemperatureF,Max Dew PointF,MeanDew PointF,Min DewpointF,Max Humidity, Mean Humidity, Min Humidity, Max Sea Level PressureIn, Mean Sea Level PressureIn, Min Sea Level PressureIn, Max VisibilityMiles, Mean VisibilityMiles, Min VisibilityMiles, Max Wind SpeedMPH, Mean Wind SpeedMPH, Max Gust SpeedMPH,PrecipitationIn, CloudCover, Events, WindDirDegrees
2012-10-1,63,53,43,52,47,41,100,80,50,29.94,29.83,29.74,9,6,1,16,9,,0.77,4,,63
2012-10-2,66,59,52,64,58,51,100,93,84,29.92,29.80,29.72,7,3,0,14,8,,0.11,7,Fog,54
2012-10-3,66,60,55,61,54,50,100,81,56,30.16,30.04,29.91,9,6,2,12,6,16,0.00,5,,208
2012-10-4,75,64,52,55,51,48,90,70,40,30.22,30.18,30.14,9,7,2,15,7,22,0.05,1,,212
2012-10-5,72,57,41,55,48,39,93,79,53,30.14,30.06,29.99,8,6,2,17,8,21,0.19,4,,295
2012-10-6,54,45,36,39,35,28,93,75,37,30.17,30.09,30.02,9,6,2,13,9,16,0.50,4,,300
2012-10-7,47,42,36,35,33,30,82,68,56,30.22,30.17,30.13,9,8,5,10,5,,0.00,6,,285
2012-10-8,53,40,28,34,29,25,92,63,38,30.29,30.22,30.16,9,6,1,10,3,,0.00,0,,207
2012-10-9,59,46,34,40,34,32,93,69,35,30.20,30.12,29.99,10,8,2,14,7,17,0.00,0,,191
2012-10-10,54,44,32,41,34,25,87,66,42,30.27,30.06,29.92,10,10,5,21,11,28,0.00,3,,265
2012-10-11,56,42,28,31,27,24,85,60,32,30.33,30.26,30.19,10,10,9,13,6,17,0.00,0,,221
2012-10-12,54,45,34,38,30,23,80,57,29,30.42,30.35,30.21,10,10,9,15,7,,0.00,2,,31
2012-10-13,70,51,32,57,40,25,79,64,45,30.38,30.21,30.03,10,10,9,15,9,21,0.00,1,,161
2012-10-14,70,64,56,59,55,52,94,75,57,30.02,29.85,29.69,10,8,2,24,14,37,0.12,5,,207
2012-10-15,54,46,38,49,42,36,93,79,61,29.99,29.88,29.78,10,9,3,20,12,26,0.00,6,,280
2012-10-16,61,44,28,39,34,27,100,79,38,30.05,29.98,29.85,10,5,0,9,3,,0.00,0,Fog,214
2012-10-17,73,62,50,46,43,38,69,54,32,29.84,29.76,29.61,10,9,2,18,9,28,0.00,2,,162
2012-10-18,61,54,46,48,39,27,87,59,29,29.73,29.62,29.51,9,7,2,24,14,33,0.08,3,,206
2012-10-19,52,48,43,43,38,31,93,74,47,29.71,29.66,29.59,8,6,3,14,10,,0.09,7,,204
2012-10-20,52,47,39,43,40,36,93,81,54,30.01,29.81,29.70,8,6,2,17,11,25,0.28,7,,249
2012-10-21,61,46,30,44,38,29,100,84,50,30.17,30.10,30.02,7,3,0,9,5,,0.00,0,Fog,204
2012-10-22,77,60,43,51,46,39,86,64,39,30.16,30.11,30.06,8,7,6,13,6,,0.00,2,,179
2012-10-23,74,66,57,50,48,46,77,54,42,30.09,30.05,30.00,8,7,4,17,8,,0.02,4,Thunderstorm,216
2012-10-24,77,67,57,53,50,47,75,57,35,30.13,30.08,30.04,8,7,6,16,10,28,0.00,2,,196
2012-10-25,77,64,52,52,48,44,72,56,40,30.09,30.02,29.96,8,6,3,18,8,23,0.00,0,,183
2012-10-26,63,52,42,52,43,39,93,87,62,30.18,30.13,29.97,8,4,1,20,11,25,0.83,7,,353
2012-10-27,47,43,39,41,38,32,93,82,65,30.16,30.12,30.08,8,5,2,18,13,23,0.17,8,,6
2012-10-28,44,41,36,36,33,28,81,71,58,30.13,30.07,30.02,9,7,5,23,14,33,0.00,8,,2
2012-10-29,37,34,32,32,29,24,93,77,60,30.06,29.94,29.70,8,6,5,33,19,40,0.03,7,,336
2012-10-30,37,34,30,34,31,25,93,88,60,29.67,29.53,29.46,8,2,1,33,21,44,0.12,8,,314
2012-10-31,39,37,35,36,34,32,93,89,81,29.80,29.69,29.59,8,4,1,20,14,26,0.02,8,,287